AFR1262 LFPG-ESSA
Flight info
| Callsign | AFR1262 |
|---|---|
| Flight time | 2h 4m |
| Altitude | 37000 |
| Route | NURMO DCT CMB DCT VEKIN DCT ADUTO N873 VICOT DCT 520713N0050012E 524335N0055949E 530034N0062813E 535353N0080015E 542708N0085901E DCT AMRAK DCT 553116N0105920E 561404N0122153E 570006N0135440E DCT MIKNA N851 PELUP Z226 NILUG |
| Aircraft | A319/M-SDE3FGHIRWY/LB1 |
Departure
| Time | 2026-05-06 11:17 |
|---|---|
| Airport | Charles de Gaulle International Airport (LFPG) |
Arrival
| Time | 2026-05-06 13:21 |
|---|---|
| Airport | Stockholm-Arlanda Airport (ESSA) |
| Time | Latitude | Longitude | Altitude | Speed | Heading |
|---|---|---|---|---|---|
| 2026-05-06 10:30 | 49.00721 | 2.57451 | 335 ft | 0 kts | 208° |
| 2026-05-06 10:59 | 49.00724 | 2.57454 | 335 ft | 2 kts | 208° |
| 2026-05-06 10:59 | 49.00737 | 2.57464 | 335 ft | 2 kts | 208° |
| 2026-05-06 11:00 | 49.00750 | 2.57475 | 335 ft | 2 kts | 211° |
| 2026-05-06 11:00 | 49.00762 | 2.57485 | 335 ft | 1 kts | 202° |
| 2026-05-06 11:00 | 49.00773 | 2.57485 | 336 ft | 1 kts | 194° |
| 2026-05-06 11:00 | 49.00784 | 2.57499 | 336 ft | 2 kts | 249° |
| 2026-05-06 11:01 | 49.00785 | 2.57513 | 336 ft | 0 kts | 274° |
| 2026-05-06 11:01 | 49.00785 | 2.57516 | 336 ft | 0 kts | 274° |
| 2026-05-06 11:05 | 49.00785 | 2.57515 | 336 ft | 0 kts | 274° |
| 2026-05-06 11:06 | 49.00785 | 2.57511 | 336 ft | 1 kts | 274° |
| 2026-05-06 11:07 | 49.00784 | 2.57469 | 336 ft | 5 kts | 266° |
| 2026-05-06 11:07 | 49.00780 | 2.57396 | 336 ft | 9 kts | 266° |
| 2026-05-06 11:07 | 49.00774 | 2.57298 | 337 ft | 9 kts | 269° |
| 2026-05-06 11:07 | 49.00823 | 2.57216 | 337 ft | 12 kts | 5° |
| 2026-05-06 11:08 | 49.00866 | 2.57322 | 337 ft | 13 kts | 87° |
| 2026-05-06 11:08 | 49.00873 | 2.57484 | 337 ft | 17 kts | 86° |
| 2026-05-06 11:08 | 49.00883 | 2.57690 | 337 ft | 21 kts | 85° |
| 2026-05-06 11:08 | 49.00897 | 2.57918 | 337 ft | 21 kts | 85° |
| 2026-05-06 11:09 | 49.00909 | 2.58144 | 337 ft | 21 kts | 85° |
| 2026-05-06 11:09 | 49.00922 | 2.58385 | 335 ft | 24 kts | 85° |
| 2026-05-06 11:09 | 49.00936 | 2.58646 | 336 ft | 24 kts | 84° |
| 2026-05-06 11:09 | 49.00950 | 2.58901 | 335 ft | 24 kts | 85° |
| 2026-05-06 11:10 | 49.00986 | 2.59150 | 333 ft | 24 kts | 85° |
| 2026-05-06 11:10 | 49.00993 | 2.59309 | 333 ft | 0 kts | 85° |
| 2026-05-06 11:10 | 49.00998 | 2.59386 | 333 ft | 13 kts | 84° |
| 2026-05-06 11:10 | 49.00978 | 2.59517 | 333 ft | 14 kts | 146° |
| 2026-05-06 11:11 | 49.00874 | 2.59542 | 333 ft | 15 kts | 175° |
| 2026-05-06 11:11 | 49.00757 | 2.59557 | 332 ft | 18 kts | 176° |
| 2026-05-06 11:11 | 49.00625 | 2.59572 | 330 ft | 19 kts | 175° |
| 2026-05-06 11:11 | 49.00486 | 2.59588 | 330 ft | 20 kts | 177° |
| 2026-05-06 11:12 | 49.00339 | 2.59610 | 327 ft | 22 kts | 175° |
| 2026-05-06 11:12 | 49.00183 | 2.59627 | 327 ft | 22 kts | 175° |
| 2026-05-06 11:12 | 49.00020 | 2.59646 | 324 ft | 22 kts | 177° |
| 2026-05-06 11:12 | 48.99898 | 2.59663 | 324 ft | 6 kts | 176° |
| 2026-05-06 11:13 | 48.99897 | 2.59663 | 324 ft | 0 kts | 176° |
| 2026-05-06 11:13 | 48.99891 | 2.59664 | 324 ft | 5 kts | 176° |
| 2026-05-06 11:13 | 48.99820 | 2.59645 | 323 ft | 13 kts | 217° |
| 2026-05-06 11:14 | 48.99798 | 2.59566 | 323 ft | 0 kts | 266° |
| 2026-05-06 11:16 | 48.99796 | 2.59534 | 323 ft | 17 kts | 267° |
| 2026-05-06 11:16 | 48.99766 | 2.58945 | 324 ft | 91 kts | 266° |
| 2026-05-06 11:16 | 48.99695 | 2.57651 | 328 ft | 152 kts | 266° |
| 2026-05-06 11:16 | 48.99580 | 2.55941 | 766 ft | 165 kts | 267° |
| 2026-05-06 11:17 | 48.99473 | 2.54238 | 1480 ft | 164 kts | 266° |
| 2026-05-06 11:17 | 48.99338 | 2.52527 | 2158 ft | 165 kts | 266° |
| 2026-05-06 11:17 | 48.99191 | 2.50732 | 2658 ft | 179 kts | 271° |
| 2026-05-06 11:17 | 48.99124 | 2.48784 | 3130 ft | 195 kts | 273° |
| 2026-05-06 11:18 | 48.99066 | 2.46632 | 3568 ft | 216 kts | 271° |
| 2026-05-06 11:18 | 48.98972 | 2.44246 | 4088 ft | 234 kts | 270° |
| 2026-05-06 11:18 | 48.98846 | 2.41683 | 4647 ft | 252 kts | 269° |
| 2026-05-06 11:18 | 48.98700 | 2.38979 | 5209 ft | 267 kts | 269° |
| 2026-05-06 11:19 | 48.98540 | 2.36106 | 6007 ft | 273 kts | 268° |
| 2026-05-06 11:19 | 48.98376 | 2.33262 | 6898 ft | 275 kts | 268° |
| 2026-05-06 11:19 | 48.98213 | 2.30358 | 7716 ft | 278 kts | 267° |
| 2026-05-06 11:19 | 48.98295 | 2.27465 | 8514 ft | 280 kts | 287° |
| 2026-05-06 11:20 | 48.99142 | 2.24814 | 9277 ft | 279 kts | 309° |
| 2026-05-06 11:20 | 49.00595 | 2.22909 | 9828 ft | 282 kts | 332° |
| 2026-05-06 11:20 | 49.02468 | 2.22013 | 10524 ft | 289 kts | 354° |
| 2026-05-06 11:20 | 49.04514 | 2.22329 | 10952 ft | 307 kts | 18° |
| 2026-05-06 11:21 | 49.06515 | 2.23624 | 11353 ft | 324 kts | 23° |
| 2026-05-06 11:21 | 49.08641 | 2.25075 | 11704 ft | 342 kts | 23° |
| 2026-05-06 11:21 | 49.10873 | 2.26590 | 12016 ft | 360 kts | 23° |
| 2026-05-06 11:21 | 49.13202 | 2.28164 | 12303 ft | 376 kts | 23° |
| 2026-05-06 11:22 | 49.15619 | 2.29793 | 12641 ft | 389 kts | 23° |
| 2026-05-06 11:22 | 49.18135 | 2.31487 | 13241 ft | 394 kts | 23° |
| 2026-05-06 11:22 | 49.20625 | 2.33164 | 13879 ft | 397 kts | 23° |
| 2026-05-06 11:22 | 49.23172 | 2.34880 | 14509 ft | 400 kts | 23° |
| 2026-05-06 11:23 | 49.25714 | 2.36594 | 15090 ft | 404 kts | 23° |
| 2026-05-06 11:23 | 49.28297 | 2.38339 | 15656 ft | 408 kts | 23° |
| 2026-05-06 11:23 | 49.30875 | 2.40081 | 16194 ft | 412 kts | 22° |
| 2026-05-06 11:23 | 49.33512 | 2.41865 | 16724 ft | 415 kts | 22° |
| 2026-05-06 11:24 | 49.36183 | 2.43673 | 17238 ft | 419 kts | 22° |
| 2026-05-06 11:24 | 49.38842 | 2.45477 | 17729 ft | 423 kts | 22° |
| 2026-05-06 11:24 | 49.41526 | 2.47299 | 18206 ft | 426 kts | 22° |
| 2026-05-06 11:24 | 49.44220 | 2.49131 | 18688 ft | 429 kts | 22° |
| 2026-05-06 11:25 | 49.46982 | 2.51011 | 19170 ft | 432 kts | 22° |
| 2026-05-06 11:25 | 49.49713 | 2.52871 | 19625 ft | 434 kts | 23° |
| 2026-05-06 11:25 | 49.52471 | 2.54753 | 20066 ft | 437 kts | 23° |
| 2026-05-06 11:25 | 49.55270 | 2.56666 | 20494 ft | 440 kts | 23° |
| 2026-05-06 11:26 | 49.58047 | 2.58566 | 20930 ft | 443 kts | 23° |
| 2026-05-06 11:26 | 49.60864 | 2.60497 | 21369 ft | 444 kts | 23° |
| 2026-05-06 11:26 | 49.63684 | 2.62432 | 21793 ft | 446 kts | 23° |
| 2026-05-06 11:26 | 49.66531 | 2.64388 | 22187 ft | 447 kts | 23° |
| 2026-05-06 11:27 | 49.69390 | 2.66354 | 22529 ft | 451 kts | 24° |
| 2026-05-06 11:27 | 49.72241 | 2.68321 | 22857 ft | 453 kts | 24° |
| 2026-05-06 11:27 | 49.75105 | 2.70296 | 23177 ft | 457 kts | 25° |
| 2026-05-06 11:27 | 49.78035 | 2.72319 | 23519 ft | 459 kts | 25° |
| 2026-05-06 11:28 | 49.80907 | 2.74386 | 23858 ft | 461 kts | 27° |
| 2026-05-06 11:28 | 49.83757 | 2.76722 | 24215 ft | 461 kts | 30° |
| 2026-05-06 11:28 | 49.86520 | 2.79276 | 24514 ft | 464 kts | 32° |
| 2026-05-06 11:28 | 49.89244 | 2.81924 | 24868 ft | 465 kts | 33° |
| 2026-05-06 11:29 | 49.91936 | 2.84574 | 25347 ft | 462 kts | 33° |
| 2026-05-06 11:29 | 49.94638 | 2.87244 | 25832 ft | 460 kts | 33° |
| 2026-05-06 11:29 | 49.97331 | 2.89903 | 26300 ft | 459 kts | 33° |
| 2026-05-06 11:29 | 50.00005 | 2.92540 | 26744 ft | 458 kts | 33° |
| 2026-05-06 11:30 | 50.02686 | 2.95183 | 27189 ft | 456 kts | 33° |
| 2026-05-06 11:30 | 50.05373 | 2.97835 | 27611 ft | 456 kts | 33° |
| 2026-05-06 11:30 | 50.08047 | 3.00475 | 28030 ft | 455 kts | 33° |
| 2026-05-06 11:30 | 50.10718 | 3.03115 | 28477 ft | 453 kts | 33° |
| 2026-05-06 11:31 | 50.13364 | 3.05737 | 28897 ft | 452 kts | 33° |
| 2026-05-06 11:31 | 50.16008 | 3.08359 | 29301 ft | 451 kts | 33° |
| 2026-05-06 11:31 | 50.18666 | 3.11000 | 29718 ft | 450 kts | 33° |
| 2026-05-06 11:31 | 50.21318 | 3.13542 | 30133 ft | 450 kts | 31° |
| 2026-05-06 11:32 | 50.24048 | 3.15870 | 30520 ft | 450 kts | 28° |
| 2026-05-06 11:32 | 50.26872 | 3.17993 | 30895 ft | 450 kts | 25° |
| 2026-05-06 11:32 | 50.29726 | 3.20008 | 31256 ft | 450 kts | 25° |
| 2026-05-06 11:32 | 50.32567 | 3.21982 | 31573 ft | 449 kts | 25° |
| 2026-05-06 11:33 | 50.35432 | 3.23977 | 31879 ft | 449 kts | 25° |
| 2026-05-06 11:33 | 50.38263 | 3.25960 | 32204 ft | 449 kts | 25° |
| 2026-05-06 11:33 | 50.41099 | 3.28006 | 32542 ft | 448 kts | 26° |
| 2026-05-06 11:33 | 50.43901 | 3.30164 | 32851 ft | 448 kts | 27° |
| 2026-05-06 11:34 | 50.46664 | 3.32334 | 33134 ft | 448 kts | 27° |
| 2026-05-06 11:34 | 50.49439 | 3.34519 | 33433 ft | 447 kts | 27° |
| 2026-05-06 11:34 | 50.52218 | 3.36627 | 33715 ft | 447 kts | 25° |
| 2026-05-06 11:34 | 50.55073 | 3.38631 | 33972 ft | 446 kts | 24° |
| 2026-05-06 11:35 | 50.57921 | 3.40590 | 34224 ft | 445 kts | 23° |
| 2026-05-06 11:35 | 50.60750 | 3.42529 | 34464 ft | 445 kts | 23° |
| 2026-05-06 11:35 | 50.63562 | 3.44462 | 34724 ft | 444 kts | 23° |
| 2026-05-06 11:35 | 50.66372 | 3.46395 | 34953 ft | 443 kts | 23° |
| 2026-05-06 11:36 | 50.69233 | 3.48365 | 35134 ft | 443 kts | 23° |
| 2026-05-06 11:36 | 50.72042 | 3.50304 | 35265 ft | 445 kts | 23° |
| 2026-05-06 11:36 | 50.74867 | 3.52259 | 35393 ft | 447 kts | 23° |
| 2026-05-06 11:36 | 50.77741 | 3.54253 | 35509 ft | 448 kts | 23° |
| 2026-05-06 11:37 | 50.80579 | 3.56226 | 35632 ft | 450 kts | 23° |
| 2026-05-06 11:37 | 50.83469 | 3.58240 | 35745 ft | 452 kts | 23° |
| 2026-05-06 11:37 | 50.86319 | 3.60228 | 35848 ft | 453 kts | 23° |
| 2026-05-06 11:37 | 50.89206 | 3.62245 | 35954 ft | 454 kts | 23° |
| 2026-05-06 11:38 | 50.92100 | 3.64272 | 36077 ft | 455 kts | 23° |
| 2026-05-06 11:38 | 50.94974 | 3.66324 | 36179 ft | 456 kts | 24° |
| 2026-05-06 11:38 | 50.97886 | 3.68420 | 36290 ft | 457 kts | 24° |
| 2026-05-06 11:38 | 51.00769 | 3.70499 | 36393 ft | 458 kts | 24° |
| 2026-05-06 11:39 | 51.03646 | 3.72575 | 36487 ft | 459 kts | 24° |
| 2026-05-06 11:39 | 51.09476 | 3.76783 | 36676 ft | 461 kts | 24° |
| 2026-05-06 11:40 | 51.15305 | 3.80995 | 36826 ft | 463 kts | 24° |
| 2026-05-06 11:40 | 51.21169 | 3.85245 | 36870 ft | 465 kts | 24° |
| 2026-05-06 11:41 | 51.27056 | 3.89536 | 36874 ft | 465 kts | 24° |
| 2026-05-06 11:41 | 51.32961 | 3.93861 | 36878 ft | 465 kts | 24° |
| 2026-05-06 11:42 | 51.38816 | 3.98159 | 36877 ft | 465 kts | 24° |
| 2026-05-06 11:42 | 51.44586 | 4.02786 | 36876 ft | 465 kts | 30° |
| 2026-05-06 11:43 | 51.50000 | 4.08425 | 36878 ft | 466 kts | 36° |
| 2026-05-06 11:43 | 51.54980 | 4.15026 | 36878 ft | 465 kts | 42° |
| 2026-05-06 11:44 | 51.62177 | 4.25667 | 36872 ft | 466 kts | 43° |
| 2026-05-06 11:44 | 51.66933 | 4.32729 | 36876 ft | 466 kts | 42° |
| 2026-05-06 11:45 | 51.71690 | 4.39798 | 36870 ft | 466 kts | 42° |
| 2026-05-06 11:45 | 51.76443 | 4.46877 | 36864 ft | 466 kts | 42° |
| 2026-05-06 11:46 | 51.81213 | 4.54001 | 36870 ft | 466 kts | 42° |
| 2026-05-06 11:46 | 51.85948 | 4.61095 | 36867 ft | 467 kts | 42° |
| 2026-05-06 11:47 | 51.90728 | 4.68275 | 36868 ft | 467 kts | 43° |
| 2026-05-06 11:47 | 51.95461 | 4.75407 | 36864 ft | 467 kts | 43° |
| 2026-05-06 11:48 | 52.00203 | 4.82574 | 36860 ft | 467 kts | 43° |
| 2026-05-06 11:48 | 52.04945 | 4.89763 | 36860 ft | 467 kts | 43° |
| 2026-05-06 11:49 | 52.09701 | 4.96997 | 36865 ft | 468 kts | 43° |
| 2026-05-06 11:49 | 52.14397 | 5.04307 | 36862 ft | 468 kts | 45° |
| 2026-05-06 11:50 | 52.19014 | 5.11791 | 36864 ft | 468 kts | 45° |
| 2026-05-06 11:50 | 52.23601 | 5.19238 | 36855 ft | 468 kts | 45° |
| 2026-05-06 11:51 | 52.28238 | 5.26768 | 36863 ft | 468 kts | 45° |
| 2026-05-06 11:51 | 52.32838 | 5.34251 | 36857 ft | 468 kts | 45° |
| 2026-05-06 11:52 | 52.37462 | 5.41795 | 36861 ft | 468 kts | 45° |
| 2026-05-06 11:52 | 52.42072 | 5.49339 | 36864 ft | 468 kts | 45° |
| 2026-05-06 11:53 | 52.46666 | 5.56880 | 36861 ft | 469 kts | 45° |
| 2026-05-06 11:53 | 52.51250 | 5.64429 | 36868 ft | 470 kts | 45° |
| 2026-05-06 11:54 | 52.55867 | 5.72055 | 36874 ft | 470 kts | 46° |
| 2026-05-06 11:54 | 52.60469 | 5.79680 | 36885 ft | 470 kts | 45° |
| 2026-05-06 11:55 | 52.65066 | 5.87320 | 36896 ft | 470 kts | 45° |
| 2026-05-06 11:55 | 52.69641 | 5.94949 | 36911 ft | 469 kts | 46° |
| 2026-05-06 11:56 | 52.74205 | 6.02616 | 36917 ft | 469 kts | 46° |
| 2026-05-06 11:56 | 52.78773 | 6.10372 | 36909 ft | 469 kts | 46° |
| 2026-05-06 11:57 | 52.83322 | 6.18112 | 36902 ft | 471 kts | 46° |
| 2026-05-06 11:57 | 52.87872 | 6.25872 | 36893 ft | 471 kts | 46° |
| 2026-05-06 11:58 | 52.92409 | 6.33635 | 36888 ft | 471 kts | 46° |
| 2026-05-06 11:58 | 52.96957 | 6.41442 | 36883 ft | 471 kts | 46° |
| 2026-05-06 11:59 | 53.01488 | 6.49216 | 36879 ft | 470 kts | 45° |
| 2026-05-06 11:59 | 53.06055 | 6.56922 | 36876 ft | 470 kts | 45° |
| 2026-05-06 12:00 | 53.10650 | 6.64681 | 36879 ft | 470 kts | 45° |
| 2026-05-06 12:00 | 53.15271 | 6.72516 | 36881 ft | 471 kts | 46° |
| 2026-05-06 12:01 | 53.19846 | 6.80303 | 36882 ft | 472 kts | 46° |
| 2026-05-06 12:01 | 53.24441 | 6.88152 | 36878 ft | 473 kts | 46° |
| 2026-05-06 12:02 | 53.29017 | 6.95994 | 36885 ft | 474 kts | 46° |
| 2026-05-06 12:02 | 53.33598 | 7.03872 | 36892 ft | 474 kts | 46° |
| 2026-05-06 12:03 | 53.38163 | 7.11745 | 36886 ft | 474 kts | 46° |
| 2026-05-06 12:03 | 53.42748 | 7.19677 | 36889 ft | 475 kts | 46° |
| 2026-05-06 12:04 | 53.47313 | 7.27605 | 36883 ft | 475 kts | 46° |
| 2026-05-06 12:04 | 53.51905 | 7.35606 | 36885 ft | 475 kts | 46° |
| 2026-05-06 12:05 | 53.56479 | 7.43601 | 36885 ft | 475 kts | 46° |
| 2026-05-06 12:05 | 53.61059 | 7.51632 | 36892 ft | 475 kts | 46° |
| 2026-05-06 12:06 | 53.65603 | 7.59627 | 36886 ft | 475 kts | 46° |
| 2026-05-06 12:06 | 53.70132 | 7.67622 | 36883 ft | 475 kts | 47° |
| 2026-05-06 12:07 | 53.74694 | 7.75702 | 36885 ft | 475 kts | 47° |
| 2026-05-06 12:07 | 53.79274 | 7.83838 | 36886 ft | 475 kts | 47° |
| 2026-05-06 12:08 | 53.83787 | 7.91879 | 36888 ft | 475 kts | 47° |
| 2026-05-06 12:08 | 53.88320 | 7.99993 | 36896 ft | 475 kts | 46° |
| 2026-05-06 12:09 | 53.92942 | 8.07954 | 36897 ft | 475 kts | 45° |
| 2026-05-06 12:09 | 53.97607 | 8.15873 | 36895 ft | 474 kts | 45° |
| 2026-05-06 12:10 | 54.02238 | 8.23787 | 36892 ft | 475 kts | 45° |
| 2026-05-06 12:10 | 54.06844 | 8.31701 | 36888 ft | 475 kts | 45° |
| 2026-05-06 12:11 | 54.11494 | 8.39724 | 36890 ft | 476 kts | 45° |
| 2026-05-06 12:11 | 54.16153 | 8.47787 | 36882 ft | 477 kts | 45° |
| 2026-05-06 12:12 | 54.20790 | 8.55838 | 36880 ft | 478 kts | 45° |
| 2026-05-06 12:12 | 54.25444 | 8.63950 | 36879 ft | 479 kts | 45° |
| 2026-05-06 12:13 | 54.30110 | 8.72114 | 36872 ft | 479 kts | 46° |
| 2026-05-06 12:13 | 54.34738 | 8.80234 | 36869 ft | 479 kts | 46° |
| 2026-05-06 12:14 | 54.39383 | 8.88414 | 36869 ft | 479 kts | 46° |
| 2026-05-06 12:14 | 54.43993 | 8.96569 | 36869 ft | 480 kts | 47° |
| 2026-05-06 12:15 | 54.48404 | 9.05155 | 36868 ft | 480 kts | 50° |
| 2026-05-06 12:15 | 54.52707 | 9.13914 | 36861 ft | 480 kts | 50° |
| 2026-05-06 12:16 | 54.57000 | 9.22677 | 36874 ft | 480 kts | 50° |
| 2026-05-06 12:16 | 54.61299 | 9.31459 | 36872 ft | 480 kts | 50° |
| 2026-05-06 12:17 | 54.65590 | 9.40253 | 36873 ft | 481 kts | 50° |
| 2026-05-06 12:17 | 54.69884 | 9.49076 | 36876 ft | 481 kts | 50° |
| 2026-05-06 12:18 | 54.74174 | 9.57925 | 36877 ft | 481 kts | 50° |
| 2026-05-06 12:18 | 54.78465 | 9.66806 | 36874 ft | 481 kts | 51° |
| 2026-05-06 12:19 | 54.82796 | 9.75601 | 36875 ft | 481 kts | 48° |
| 2026-05-06 12:19 | 54.87475 | 9.83917 | 36881 ft | 482 kts | 46° |
| 2026-05-06 12:20 | 54.92213 | 9.92139 | 36876 ft | 482 kts | 46° |
| 2026-05-06 12:20 | 54.96932 | 10.00376 | 36659 ft | 481 kts | 46° |
| 2026-05-06 12:21 | 54.99287 | 10.04504 | 36775 ft | 483 kts | 46° |
| 2026-05-06 12:21 | 55.01648 | 10.08652 | 36832 ft | 485 kts | 46° |
| 2026-05-06 12:21 | 55.04019 | 10.12827 | 37052 ft | 485 kts | 46° |
| 2026-05-06 12:21 | 55.06392 | 10.17011 | 36970 ft | 484 kts | 46° |
| 2026-05-06 12:22 | 55.11116 | 10.25371 | 36931 ft | 484 kts | 46° |
| 2026-05-06 12:22 | 55.15833 | 10.33746 | 36903 ft | 484 kts | 46° |
| 2026-05-06 12:23 | 55.20550 | 10.42150 | 36901 ft | 484 kts | 46° |
| 2026-05-06 12:23 | 55.25241 | 10.50536 | 36893 ft | 485 kts | 46° |
| 2026-05-06 12:24 | 55.29956 | 10.58999 | 36893 ft | 484 kts | 46° |
| 2026-05-06 12:24 | 55.34671 | 10.67486 | 36894 ft | 485 kts | 46° |
| 2026-05-06 12:25 | 55.39348 | 10.75934 | 36898 ft | 484 kts | 47° |
| 2026-05-06 12:25 | 55.44048 | 10.84471 | 36895 ft | 485 kts | 47° |
| 2026-05-06 12:26 | 55.48749 | 10.93032 | 36897 ft | 485 kts | 47° |
| 2026-05-06 12:26 | 55.53412 | 11.01575 | 36901 ft | 485 kts | 47° |
| 2026-05-06 12:27 | 55.58034 | 11.10179 | 36557 ft | 485 kts | 47° |
| 2026-05-06 12:27 | 55.60368 | 11.14538 | 36989 ft | 486 kts | 47° |
| 2026-05-06 12:27 | 55.62676 | 11.18851 | 36597 ft | 486 kts | 47° |
| 2026-05-06 12:28 | 55.65009 | 11.23220 | 36752 ft | 486 kts | 47° |
| 2026-05-06 12:28 | 55.67324 | 11.27562 | 36834 ft | 488 kts | 47° |
| 2026-05-06 12:28 | 55.71967 | 11.36296 | 36891 ft | 490 kts | 47° |
| 2026-05-06 12:29 | 55.76656 | 11.45139 | 36903 ft | 490 kts | 47° |
| 2026-05-06 12:29 | 55.81279 | 11.53893 | 36914 ft | 490 kts | 47° |
| 2026-05-06 12:30 | 55.85948 | 11.62767 | 36913 ft | 491 kts | 47° |
| 2026-05-06 12:30 | 55.90606 | 11.71652 | 36912 ft | 492 kts | 48° |
| 2026-05-06 12:31 | 55.95265 | 11.80575 | 36916 ft | 492 kts | 48° |
| 2026-05-06 12:31 | 55.99911 | 11.89503 | 36912 ft | 492 kts | 48° |
| 2026-05-06 12:32 | 56.04587 | 11.98520 | 36904 ft | 493 kts | 48° |
| 2026-05-06 12:32 | 56.09219 | 12.07487 | 36900 ft | 492 kts | 48° |
| 2026-05-06 12:33 | 56.13880 | 12.16545 | 36900 ft | 493 kts | 48° |
| 2026-05-06 12:33 | 56.18500 | 12.25561 | 36893 ft | 494 kts | 48° |
| 2026-05-06 12:34 | 56.23129 | 12.34633 | 36894 ft | 495 kts | 48° |
| 2026-05-06 12:34 | 56.27778 | 12.43769 | 36896 ft | 495 kts | 48° |
| 2026-05-06 12:35 | 56.32429 | 12.52920 | 36898 ft | 495 kts | 48° |
| 2026-05-06 12:35 | 56.37051 | 12.62057 | 36899 ft | 495 kts | 48° |
| 2026-05-06 12:36 | 56.41641 | 12.71152 | 36900 ft | 495 kts | 49° |
| 2026-05-06 12:36 | 56.46306 | 12.80435 | 36894 ft | 496 kts | 49° |
| 2026-05-06 12:37 | 56.50945 | 12.89700 | 36896 ft | 497 kts | 49° |
| 2026-05-06 12:37 | 56.55559 | 12.98958 | 36895 ft | 496 kts | 49° |
| 2026-05-06 12:38 | 56.60182 | 13.08278 | 36897 ft | 498 kts | 49° |
| 2026-05-06 12:38 | 56.64822 | 13.17657 | 36895 ft | 498 kts | 49° |
| 2026-05-06 12:39 | 56.69445 | 13.27041 | 36888 ft | 499 kts | 49° |
| 2026-05-06 12:39 | 56.74052 | 13.36430 | 36890 ft | 500 kts | 49° |
| 2026-05-06 12:40 | 56.78686 | 13.45911 | 36891 ft | 500 kts | 48° |
| 2026-05-06 12:40 | 56.83287 | 13.55364 | 36886 ft | 500 kts | 49° |
| 2026-05-06 12:41 | 56.87894 | 13.64869 | 36891 ft | 500 kts | 49° |
| 2026-05-06 12:41 | 56.92497 | 13.74400 | 36893 ft | 502 kts | 49° |
| 2026-05-06 12:42 | 56.97108 | 13.83984 | 36892 ft | 502 kts | 50° |
| 2026-05-06 12:42 | 57.01701 | 13.93620 | 36892 ft | 503 kts | 50° |
| 2026-05-06 12:43 | 57.06239 | 14.03359 | 36888 ft | 503 kts | 50° |
| 2026-05-06 12:43 | 57.10756 | 14.13126 | 36893 ft | 504 kts | 50° |
| 2026-05-06 12:44 | 57.15282 | 14.22935 | 36890 ft | 504 kts | 50° |
| 2026-05-06 12:44 | 57.19809 | 14.32767 | 36894 ft | 504 kts | 50° |
| 2026-05-06 12:45 | 57.24350 | 14.42673 | 36897 ft | 504 kts | 50° |
| 2026-05-06 12:46 | 57.31114 | 14.57506 | 36901 ft | 505 kts | 50° |
| 2026-05-06 12:46 | 57.35622 | 14.67443 | 36896 ft | 505 kts | 51° |
| 2026-05-06 12:47 | 57.40154 | 14.77457 | 36892 ft | 506 kts | 51° |
| 2026-05-06 12:47 | 57.44667 | 14.87491 | 36897 ft | 507 kts | 51° |
| 2026-05-06 12:48 | 57.49169 | 14.97527 | 36896 ft | 508 kts | 51° |
| 2026-05-06 12:48 | 57.53659 | 15.07590 | 36895 ft | 507 kts | 50° |
| 2026-05-06 12:49 | 57.58164 | 15.17714 | 36895 ft | 508 kts | 51° |
| 2026-05-06 12:49 | 57.62651 | 15.27854 | 36907 ft | 507 kts | 51° |
| 2026-05-06 12:50 | 57.67117 | 15.37997 | 36918 ft | 509 kts | 51° |
| 2026-05-06 12:50 | 57.71593 | 15.48218 | 36911 ft | 509 kts | 51° |
| 2026-05-06 12:51 | 57.76062 | 15.58454 | 36908 ft | 510 kts | 50° |
| 2026-05-06 12:51 | 57.80586 | 15.68820 | 36918 ft | 510 kts | 51° |
| 2026-05-06 12:52 | 57.85023 | 15.79079 | 36917 ft | 511 kts | 52° |
| 2026-05-06 12:52 | 57.89609 | 15.89232 | 36926 ft | 511 kts | 47° |
| 2026-05-06 12:53 | 57.94784 | 15.98429 | 36935 ft | 511 kts | 39° |
| 2026-05-06 12:53 | 58.00328 | 16.06687 | 36929 ft | 511 kts | 36° |
| 2026-05-06 12:54 | 58.05927 | 16.14885 | 36921 ft | 511 kts | 37° |
| 2026-05-06 12:54 | 58.11510 | 16.23184 | 36932 ft | 511 kts | 37° |
| 2026-05-06 12:55 | 58.17100 | 16.31561 | 36934 ft | 512 kts | 36° |
| 2026-05-06 12:55 | 58.19899 | 16.35775 | 36777 ft | 512 kts | 36° |
| 2026-05-06 12:55 | 58.22655 | 16.39919 | 36556 ft | 511 kts | 37° |
| 2026-05-06 12:55 | 58.25370 | 16.44299 | 36281 ft | 512 kts | 41° |
| 2026-05-06 12:56 | 58.27924 | 16.48985 | 35902 ft | 513 kts | 46° |
| 2026-05-06 12:56 | 58.30311 | 16.54022 | 35382 ft | 518 kts | 51° |
| 2026-05-06 12:56 | 58.32529 | 16.59378 | 34559 ft | 522 kts | 53° |
| 2026-05-06 12:56 | 58.34688 | 16.64934 | 33616 ft | 525 kts | 55° |
| 2026-05-06 12:57 | 58.36847 | 16.70573 | 32744 ft | 526 kts | 56° |
| 2026-05-06 12:57 | 58.38977 | 16.76147 | 31924 ft | 526 kts | 56° |
| 2026-05-06 12:57 | 58.41131 | 16.81766 | 31123 ft | 525 kts | 56° |
| 2026-05-06 12:57 | 58.43292 | 16.87393 | 30299 ft | 525 kts | 56° |
| 2026-05-06 12:58 | 58.45425 | 16.92933 | 29479 ft | 524 kts | 55° |
| 2026-05-06 12:58 | 58.47566 | 16.98503 | 28640 ft | 523 kts | 55° |
| 2026-05-06 12:58 | 58.49715 | 17.04124 | 27765 ft | 523 kts | 54° |
| 2026-05-06 12:58 | 58.51840 | 17.09668 | 26893 ft | 521 kts | 54° |
| 2026-05-06 12:59 | 58.53976 | 17.15231 | 25982 ft | 521 kts | 53° |
| 2026-05-06 12:59 | 58.56124 | 17.20841 | 25025 ft | 521 kts | 53° |
| 2026-05-06 12:59 | 58.58249 | 17.26413 | 24084 ft | 520 kts | 52° |
| 2026-05-06 12:59 | 58.60345 | 17.31926 | 23511 ft | 517 kts | 52° |
| 2026-05-06 13:00 | 58.62454 | 17.37482 | 22925 ft | 511 kts | 52° |
| 2026-05-06 13:00 | 58.64521 | 17.42940 | 22330 ft | 506 kts | 52° |
| 2026-05-06 13:00 | 58.66581 | 17.48392 | 21709 ft | 500 kts | 52° |
| 2026-05-06 13:00 | 58.68595 | 17.53731 | 21095 ft | 495 kts | 52° |
| 2026-05-06 13:01 | 58.70602 | 17.59068 | 20464 ft | 489 kts | 52° |
| 2026-05-06 13:01 | 58.72584 | 17.64358 | 19835 ft | 483 kts | 52° |
| 2026-05-06 13:01 | 58.74530 | 17.69559 | 19214 ft | 477 kts | 53° |
| 2026-05-06 13:01 | 58.76456 | 17.74720 | 18592 ft | 471 kts | 53° |
| 2026-05-06 13:02 | 58.78338 | 17.79771 | 17976 ft | 466 kts | 53° |
| 2026-05-06 13:02 | 58.80267 | 17.84726 | 17341 ft | 460 kts | 47° |
| 2026-05-06 13:02 | 58.82550 | 17.88893 | 16731 ft | 448 kts | 34° |
| 2026-05-06 13:02 | 58.85116 | 17.92000 | 16629 ft | 434 kts | 24° |
| 2026-05-06 13:03 | 58.87827 | 17.94598 | 16625 ft | 434 kts | 22° |
| 2026-05-06 13:03 | 58.90525 | 17.97070 | 16628 ft | 433 kts | 21° |
| 2026-05-06 13:03 | 58.93260 | 17.99584 | 16643 ft | 434 kts | 22° |
| 2026-05-06 13:03 | 58.95966 | 18.02103 | 16633 ft | 435 kts | 22° |
| 2026-05-06 13:04 | 58.98671 | 18.04649 | 16637 ft | 433 kts | 22° |
| 2026-05-06 13:04 | 59.01355 | 18.07198 | 16219 ft | 428 kts | 22° |
| 2026-05-06 13:04 | 59.04024 | 18.09738 | 15309 ft | 430 kts | 22° |
| 2026-05-06 13:04 | 59.06669 | 18.12250 | 14723 ft | 413 kts | 20° |
| 2026-05-06 13:05 | 59.09220 | 18.14159 | 14273 ft | 377 kts | 12° |
| 2026-05-06 13:05 | 59.11667 | 18.15311 | 13817 ft | 347 kts | 5° |
| 2026-05-06 13:05 | 59.14011 | 18.15841 | 13392 ft | 335 kts | 359° |
| 2026-05-06 13:05 | 59.16320 | 18.16108 | 12973 ft | 331 kts | 359° |
| 2026-05-06 13:06 | 59.18619 | 18.16337 | 12404 ft | 330 kts | 359° |
| 2026-05-06 13:06 | 59.20896 | 18.16573 | 11843 ft | 326 kts | 360° |
| 2026-05-06 13:06 | 59.23139 | 18.16815 | 11275 ft | 325 kts | 0° |
| 2026-05-06 13:06 | 59.25378 | 18.17068 | 10754 ft | 320 kts | 1° |
| 2026-05-06 13:07 | 59.27570 | 18.17500 | 10315 ft | 317 kts | 6° |
| 2026-05-06 13:07 | 59.29763 | 18.18194 | 10196 ft | 310 kts | 7° |
| 2026-05-06 13:07 | 59.31815 | 18.18885 | 10122 ft | 288 kts | 7° |
| 2026-05-06 13:07 | 59.33743 | 18.19553 | 10038 ft | 283 kts | 8° |
| 2026-05-06 13:08 | 59.35695 | 18.20227 | 9739 ft | 281 kts | 8° |
| 2026-05-06 13:08 | 59.37606 | 18.20876 | 9354 ft | 280 kts | 7° |
| 2026-05-06 13:08 | 59.39502 | 18.21518 | 8966 ft | 278 kts | 8° |
| 2026-05-06 13:08 | 59.41416 | 18.22156 | 8577 ft | 277 kts | 8° |
| 2026-05-06 13:09 | 59.43304 | 18.22765 | 8189 ft | 276 kts | 8° |
| 2026-05-06 13:09 | 59.45182 | 18.23355 | 7803 ft | 275 kts | 8° |
| 2026-05-06 13:09 | 59.47055 | 18.23932 | 7422 ft | 273 kts | 8° |
| 2026-05-06 13:09 | 59.48930 | 18.24507 | 7041 ft | 272 kts | 8° |
| 2026-05-06 13:10 | 59.50774 | 18.25072 | 6733 ft | 268 kts | 8° |
| 2026-05-06 13:10 | 59.52617 | 18.25632 | 6399 ft | 266 kts | 7° |
| 2026-05-06 13:10 | 59.54435 | 18.25833 | 6068 ft | 263 kts | 356° |
| 2026-05-06 13:10 | 59.56235 | 18.25548 | 5738 ft | 261 kts | 353° |
| 2026-05-06 13:11 | 59.58043 | 18.25166 | 5405 ft | 259 kts | 353° |
| 2026-05-06 13:11 | 59.59820 | 18.24770 | 5079 ft | 258 kts | 353° |
| 2026-05-06 13:11 | 59.61598 | 18.24364 | 4747 ft | 257 kts | 353° |
| 2026-05-06 13:11 | 59.63364 | 18.23949 | 4454 ft | 254 kts | 353° |
| 2026-05-06 13:12 | 59.65093 | 18.23531 | 4211 ft | 247 kts | 353° |
| 2026-05-06 13:12 | 59.66763 | 18.23116 | 3816 ft | 239 kts | 353° |
| 2026-05-06 13:12 | 59.68404 | 18.22699 | 3556 ft | 233 kts | 352° |
| 2026-05-06 13:12 | 59.69980 | 18.22293 | 3319 ft | 228 kts | 353° |
| 2026-05-06 13:13 | 59.71521 | 18.21726 | 3073 ft | 223 kts | 343° |
| 2026-05-06 13:13 | 59.72948 | 18.20726 | 2844 ft | 219 kts | 339° |
| 2026-05-06 13:13 | 59.74364 | 18.19612 | 2612 ft | 215 kts | 338° |
| 2026-05-06 13:13 | 59.75714 | 18.18535 | 2476 ft | 207 kts | 338° |
| 2026-05-06 13:14 | 59.77003 | 18.17511 | 2456 ft | 194 kts | 338° |
| 2026-05-06 13:14 | 59.78248 | 18.16517 | 2531 ft | 191 kts | 338° |
| 2026-05-06 13:14 | 59.79474 | 18.15544 | 2494 ft | 191 kts | 338° |
| 2026-05-06 13:14 | 59.80717 | 18.14558 | 2478 ft | 191 kts | 338° |
| 2026-05-06 13:15 | 59.81916 | 18.13516 | 2467 ft | 190 kts | 327° |
| 2026-05-06 13:15 | 59.82734 | 18.11515 | 2456 ft | 187 kts | 287° |
| 2026-05-06 13:15 | 59.82709 | 18.09001 | 2462 ft | 183 kts | 246° |
| 2026-05-06 13:15 | 59.81982 | 18.06980 | 2482 ft | 181 kts | 226° |
| 2026-05-06 13:16 | 59.81138 | 18.05252 | 2446 ft | 162 kts | 223° |
| 2026-05-06 13:16 | 59.80379 | 18.03753 | 2442 ft | 146 kts | 223° |
| 2026-05-06 13:16 | 59.79674 | 18.02370 | 2453 ft | 135 kts | 218° |
| 2026-05-06 13:16 | 59.78896 | 18.01482 | 2444 ft | 128 kts | 200° |
| 2026-05-06 13:17 | 59.78042 | 18.00923 | 2457 ft | 127 kts | 194° |
| 2026-05-06 13:17 | 59.77188 | 18.00474 | 2463 ft | 127 kts | 192° |
| 2026-05-06 13:17 | 59.76326 | 18.00078 | 2420 ft | 127 kts | 190° |
| 2026-05-06 13:17 | 59.75458 | 17.99720 | 2254 ft | 127 kts | 189° |
| 2026-05-06 13:18 | 59.74591 | 17.99392 | 2082 ft | 126 kts | 188° |
| 2026-05-06 13:18 | 59.73740 | 17.99080 | 1916 ft | 126 kts | 188° |
| 2026-05-06 13:18 | 59.72872 | 17.98766 | 1745 ft | 125 kts | 188° |
| 2026-05-06 13:18 | 59.72015 | 17.98460 | 1577 ft | 125 kts | 189° |
| 2026-05-06 13:19 | 59.71162 | 17.98152 | 1407 ft | 125 kts | 189° |
| 2026-05-06 13:19 | 59.70311 | 17.97848 | 1243 ft | 125 kts | 189° |
| 2026-05-06 13:19 | 59.69446 | 17.97536 | 1073 ft | 125 kts | 189° |
| 2026-05-06 13:19 | 59.68594 | 17.97229 | 906 ft | 125 kts | 190° |
| 2026-05-06 13:20 | 59.67733 | 17.96913 | 738 ft | 125 kts | 190° |
| 2026-05-06 13:20 | 59.66881 | 17.96607 | 570 ft | 125 kts | 189° |
| 2026-05-06 13:20 | 59.66013 | 17.96295 | 400 ft | 125 kts | 189° |
| 2026-05-06 13:20 | 59.65160 | 17.95985 | 232 ft | 125 kts | 190° |
| 2026-05-06 13:21 | 59.64348 | 17.95691 | 147 ft | 98 kts | 190° |
| 2026-05-06 13:21 | 59.63842 | 17.95510 | 147 ft | 50 kts | 190° |
| 2026-05-06 13:21 | 59.63518 | 17.95378 | 147 ft | 44 kts | 194° |
| 2026-05-06 13:21 | 59.63317 | 17.95164 | 147 ft | 27 kts | 221° |
| 2026-05-06 13:22 | 59.63252 | 17.94931 | 147 ft | 13 kts | 311° |
| 2026-05-06 13:22 | 59.63345 | 17.94920 | 147 ft | 15 kts | 12° |
| 2026-05-06 13:22 | 59.63465 | 17.94964 | 146 ft | 19 kts | 10° |
| 2026-05-06 13:22 | 59.63608 | 17.95014 | 147 ft | 22 kts | 9° |
| 2026-05-06 13:23 | 59.63767 | 17.95074 | 147 ft | 24 kts | 14° |
| 2026-05-06 13:23 | 59.63944 | 17.95139 | 147 ft | 26 kts | 10° |
| 2026-05-06 13:23 | 59.64118 | 17.95204 | 147 ft | 20 kts | 11° |
| 2026-05-06 13:23 | 59.64261 | 17.95229 | 147 ft | 20 kts | 348° |
| 2026-05-06 13:24 | 59.64377 | 17.95067 | 147 ft | 21 kts | 302° |
| 2026-05-06 13:24 | 59.64395 | 17.94790 | 147 ft | 21 kts | 257° |
| 2026-05-06 13:24 | 59.64327 | 17.94536 | 147 ft | 21 kts | 237° |
| 2026-05-06 13:24 | 59.64246 | 17.94284 | 147 ft | 22 kts | 238° |
| 2026-05-06 13:25 | 59.64162 | 17.94017 | 147 ft | 23 kts | 238° |
| 2026-05-06 13:25 | 59.64071 | 17.93733 | 147 ft | 24 kts | 238° |
| 2026-05-06 13:25 | 59.63992 | 17.93436 | 146 ft | 23 kts | 258° |
| 2026-05-06 13:25 | 59.64029 | 17.93137 | 147 ft | 22 kts | 297° |
| 2026-05-06 13:26 | 59.64095 | 17.92901 | 146 ft | 16 kts | 310° |
| 2026-05-06 13:26 | 59.64193 | 17.92852 | 147 ft | 13 kts | 320° |
| 2026-05-06 13:26 | 59.64236 | 17.92736 | 147 ft | 8 kts | 345° |
| 2026-05-06 13:26 | 59.64280 | 17.92785 | 146 ft | 7 kts | 37° |
| 2026-05-06 13:27 | 59.64323 | 17.92847 | 147 ft | 6 kts | 36° |
| 2026-05-06 13:27 | 59.64341 | 17.92873 | 147 ft | 0 kts | 36° |